createdAt,value
2023-01-01T00:01:48.132Z,83.01
2023-01-01T00:05:51.311Z,82.84
2023-01-01T00:10:13.060Z,83.42
2023-01-01T00:14:16.061Z,83.55
2023-01-01T00:18:19.066Z,83.54
2023-01-01T00:22:53.232Z,83.60
2023-01-01T00:26:46.719Z,83.44
2023-01-01T00:30:49.947Z,83.22
2023-01-01T00:34:52.962Z,83.51
2023-01-01T00:38:56.425Z,83.40
2023-01-01T00:43:00.763Z,83.71
2023-01-01T00:47:04.109Z,84.02
2023-01-01T00:51:07.884Z,83.94
2023-01-01T00:55:11.388Z,84.04
2023-01-01T00:59:15.787Z,84.12
2023-01-01T01:03:29.064Z,84.63
2023-01-01T01:07:39.270Z,84.86
2023-01-01T01:11:42.480Z,84.21
2023-01-01T01:15:51.609Z,84.10
2023-01-01T01:19:58.419Z,84.42
2023-01-01T01:24:03.219Z,85.12
2023-01-01T01:28:06.296Z,85.81
2023-01-01T01:32:11.695Z,86.25
2023-01-01T01:36:16.246Z,86.17
2023-01-01T01:40:19.571Z,85.93
2023-01-01T01:44:52.479Z,85.60
2023-01-01T01:49:01.725Z,85.64
2023-01-01T01:53:09.654Z,86.09
2023-01-01T01:57:14.646Z,85.82
2023-01-01T02:01:18.210Z,85.72
2023-01-01T02:05:23.705Z,85.32
2023-01-01T02:09:26.980Z,85.13
2023-01-01T02:13:30.505Z,85.12
2023-01-01T02:17:40.369Z,85.05
2023-01-01T02:22:03.559Z,85.02
2023-01-01T02:26:23.774Z,85.01
2023-01-01T02:30:31.889Z,84.92
2023-01-01T02:34:39.393Z,85.00
2023-01-01T02:38:46.768Z,85.10
2023-01-01T02:42:50.471Z,85.03
2023-01-01T02:46:55.022Z,85.13
2023-01-01T02:51:04.991Z,85.02
2023-01-01T02:55:18.939Z,84.91
2023-01-01T02:59:48.754Z,84.81
2023-01-01T03:04:03.345Z,84.37
2023-01-01T03:08:12.105Z,84.57
2023-01-01T03:12:39.466Z,84.82
2023-01-01T03:16:48.715Z,85.00
2023-01-01T03:20:56.290Z,85.20
2023-01-01T03:25:02.706Z,85.53
2023-01-01T03:29:10.182Z,85.43
2023-01-01T03:33:19.859Z,85.24
2023-01-01T03:37:31.123Z,85.33
2023-01-01T03:41:39.083Z,85.09
2023-01-01T03:45:47.191Z,85.09
2023-01-01T03:49:50.211Z,85.06
2023-01-01T03:53:58.363Z,85.01
2023-01-01T03:58:06.889Z,85.21
2023-01-01T04:02:15.175Z,85.25
2023-01-01T04:06:18.594Z,85.27
2023-01-01T04:10:24.024Z,85.41
2023-01-01T04:14:29.496Z,85.20
2023-01-01T04:18:32.488Z,85.02
2023-01-01T04:22:35.746Z,85.14
2023-01-01T04:26:40.108Z,85.01
2023-01-01T04:34:45.018Z,84.80
2023-01-01T04:38:48.034Z,85.21
2023-01-01T04:42:54.743Z,85.56
2023-01-01T04:47:00.253Z,85.55
2023-01-01T04:51:06.033Z,85.48
2023-01-01T04:55:09.742Z,85.28
2023-01-01T04:59:14.196Z,85.20
2023-01-01T05:03:17.806Z,85.38
2023-01-01T05:07:20.867Z,85.45
2023-01-01T05:11:25.657Z,85.90
2023-01-01T05:15:30.026Z,86.05
2023-01-01T05:19:32.994Z,86.53
2023-01-01T05:23:36.311Z,86.44
2023-01-01T05:27:39.462Z,86.11
2023-01-01T05:31:43.935Z,86.11
2023-01-01T05:35:47.314Z,85.79
2023-01-01T05:39:50.296Z,85.81
2023-01-01T05:43:54.408Z,85.57
2023-01-01T05:47:59.088Z,85.27
2023-01-01T05:52:02.095Z,85.16
2023-01-01T05:56:06.064Z,85.00
2023-01-01T06:00:10.088Z,84.95
2023-01-01T06:04:15.008Z,84.86
2023-01-01T06:08:18.059Z,85.26
2023-01-01T06:12:22.089Z,85.80
2023-01-01T06:16:26.265Z,85.90
2023-01-01T06:20:31.040Z,86.26
2023-01-01T06:24:38.974Z,86.54
2023-01-01T06:28:43.607Z,86.45
2023-01-01T06:32:46.602Z,86.40
2023-01-01T06:36:50.979Z,86.57
2023-01-01T06:40:58.035Z,86.69
2023-01-01T06:45:01.024Z,86.76
2023-01-01T06:49:06.135Z,86.83
2023-01-01T06:53:10.533Z,86.58
2023-01-01T06:57:13.506Z,86.27
2023-01-01T07:01:19.113Z,86.17
2023-01-01T07:05:22.434Z,86.04
2023-01-01T07:09:26.804Z,85.96
2023-01-01T07:13:31.202Z,86.28
2023-01-01T07:17:35.679Z,86.58
2023-01-01T07:21:43.513Z,86.56
2023-01-01T07:25:50.424Z,86.51
2023-01-01T07:29:53.382Z,86.37
2023-01-01T07:33:56.647Z,86.16
2023-01-01T07:37:59.653Z,86.30
2023-01-01T07:42:10.651Z,86.53
2023-01-01T07:46:16.320Z,86.41
2023-01-01T07:50:19.614Z,86.24
2023-01-01T07:54:22.662Z,86.42
2023-01-01T07:58:27.042Z,86.46
2023-01-01T08:02:30.127Z,86.33
2023-01-01T08:06:33.387Z,86.18
2023-01-01T08:10:36.399Z,86.37
2023-01-01T08:14:40.762Z,86.30
2023-01-01T08:18:43.730Z,86.30
2023-01-01T08:22:46.964Z,86.39
2023-01-01T08:26:51.300Z,86.43
2023-01-01T08:30:55.898Z,86.62
2023-01-01T08:34:58.885Z,86.43
2023-01-01T08:39:02.340Z,86.62
2023-01-01T08:43:05.361Z,86.65
2023-01-01T08:47:18.190Z,87.02
2023-01-01T08:51:21.169Z,86.98
2023-01-01T08:55:24.171Z,87.36
2023-01-01T08:59:27.285Z,87.52
2023-01-01T09:03:31.713Z,87.85
2023-01-01T09:07:34.769Z,88.13
2023-01-01T09:11:38.211Z,88.69
2023-01-01T09:15:42.776Z,88.75
2023-01-01T09:19:47.162Z,89.13
2023-01-01T09:23:50.187Z,89.24
2023-01-01T09:27:58.713Z,89.59
2023-01-01T09:32:01.847Z,90.16
2023-01-01T09:36:17.640Z,90.36
2023-01-01T09:40:29.822Z,90.60
2023-01-01T09:45:22.664Z,90.65
2023-01-01T09:49:33.666Z,90.94
2023-01-01T09:53:42.767Z,91.56
2023-01-01T09:57:46.251Z,92.29
2023-01-01T10:01:58.527Z,92.53
2023-01-01T10:06:10.663Z,92.91
2023-01-01T10:10:29.246Z,93.16
2023-01-01T10:14:35.366Z,93.47
2023-01-01T10:18:41.055Z,93.48
2023-01-01T10:22:48.257Z,93.76
2023-01-01T10:26:55.495Z,93.89
2023-01-01T10:31:15.649Z,94.28
2023-01-01T10:35:28.359Z,94.02
2023-01-01T10:39:33.207Z,93.89
2023-01-01T10:43:38.129Z,93.52
2023-01-01T10:47:41.146Z,93.34
2023-01-01T10:51:46.736Z,93.00
2023-01-01T10:55:51.039Z,92.91
2023-01-01T10:59:55.734Z,92.54
2023-01-01T11:04:01.705Z,92.58
2023-01-01T11:08:05.404Z,92.22
2023-01-01T11:12:46.101Z,92.13
2023-01-01T11:16:46.802Z,91.86
2023-01-01T11:20:54.081Z,91.72
2023-01-01T11:25:01.989Z,91.57
2023-01-01T11:29:18.897Z,91.50
2023-01-01T11:33:23.547Z,91.38
2023-01-01T11:37:30.395Z,91.48
2023-01-01T11:41:43.140Z,91.30
2023-01-01T11:45:46.287Z,91.00
2023-01-01T11:49:56.353Z,91.00
2023-01-01T11:54:30.313Z,90.83
2023-01-01T11:58:39.707Z,90.74
2023-01-01T12:02:50.057Z,90.70
2023-01-01T12:06:59.846Z,90.71
2023-01-01T12:11:15.821Z,90.66
2023-01-01T12:15:25.761Z,90.30
2023-01-01T12:19:34.147Z,90.20
2023-01-01T12:23:38.567Z,89.95
2023-01-01T12:28:02.068Z,89.68
2023-01-01T12:32:11.622Z,89.47
2023-01-01T12:36:30.814Z,89.21
2023-01-01T12:40:49.475Z,88.84
2023-01-01T12:45:09.524Z,88.66
2023-01-01T12:49:34.708Z,88.44
2023-01-01T12:53:48.699Z,88.09
2023-01-01T12:57:58.563Z,87.77
2023-01-01T13:02:05.116Z,87.63
2023-01-01T13:06:13.846Z,87.47
2023-01-01T13:10:26.554Z,86.97
2023-01-01T13:14:31.154Z,87.01
2023-01-01T13:18:35.631Z,86.83
2023-01-01T13:22:43.138Z,86.70
2023-01-01T13:26:46.263Z,86.36
2023-01-01T13:30:52.132Z,86.57
2023-01-01T13:35:04.140Z,86.45
2023-01-01T13:39:08.460Z,86.67
2023-01-01T13:43:20.302Z,86.41
2023-01-01T13:47:36.337Z,86.67
2023-01-01T13:52:20.784Z,86.50
2023-01-01T13:56:38.003Z,86.53
2023-01-01T14:00:58.909Z,86.66
2023-01-01T14:05:06.541Z,86.72
2023-01-01T14:09:14.626Z,86.63
2023-01-01T14:13:19.189Z,86.64
2023-01-01T14:17:22.639Z,86.88
2023-01-01T14:21:32.055Z,86.50
2023-01-01T14:25:35.950Z,86.67
2023-01-01T14:29:39.701Z,87.11
2023-01-01T14:33:42.791Z,87.05
2023-01-01T14:37:47.205Z,86.45
2023-01-01T14:41:50.300Z,86.80
2023-01-01T14:45:53.430Z,86.83
2023-01-01T14:50:06.133Z,86.96
2023-01-01T14:54:18.407Z,86.58
2023-01-01T14:58:24.763Z,86.73
2023-01-01T15:02:30.435Z,87.01
2023-01-01T15:06:33.834Z,88.55
2023-01-01T15:10:39.718Z,87.88
2023-01-01T15:14:45.862Z,87.62
2023-01-01T15:18:51.377Z,87.77
2023-01-01T15:22:55.987Z,87.74
2023-01-01T15:27:02.689Z,87.50
2023-01-01T15:31:06.193Z,86.66
2023-01-01T15:35:27.760Z,86.34
2023-01-01T15:39:34.079Z,86.57
2023-01-01T15:43:39.125Z,87.20
2023-01-01T15:47:43.129Z,87.58
2023-01-01T15:51:46.169Z,87.65
2023-01-01T15:55:56.244Z,87.47
2023-01-01T16:00:00.759Z,87.77
2023-01-01T16:04:09.693Z,88.02
2023-01-01T16:08:12.667Z,88.26
2023-01-01T16:12:15.738Z,88.49
2023-01-01T16:16:27.953Z,88.44
2023-01-01T16:20:31.039Z,88.50
2023-01-01T16:24:36.562Z,88.66
2023-01-01T16:28:39.550Z,88.87
2023-01-01T16:32:44.154Z,88.48
2023-01-01T16:36:47.226Z,88.72
2023-01-01T16:40:52.123Z,88.54
2023-01-01T16:44:55.809Z,88.58
2023-01-01T16:49:00.230Z,88.84
2023-01-01T16:53:03.236Z,88.90
2023-01-01T16:57:06.213Z,88.65
2023-01-01T17:01:09.889Z,88.97
2023-01-01T17:05:14.597Z,88.63
2023-01-01T17:09:17.578Z,88.67
2023-01-01T17:13:20.597Z,88.50
2023-01-01T17:17:23.652Z,88.47
2023-01-01T17:21:28.384Z,88.10
2023-01-01T17:25:31.687Z,88.05
2023-01-01T17:29:34.683Z,87.82
2023-01-01T17:33:37.722Z,87.51
2023-01-01T17:37:42.319Z,87.17
2023-01-01T17:41:46.014Z,87.04
2023-01-01T17:45:49.076Z,87.16
2023-01-01T17:49:52.087Z,87.00
2023-01-01T17:53:57.602Z,87.12
2023-01-01T17:58:00.583Z,86.85
2023-01-01T18:02:05.934Z,87.00
2023-01-01T18:06:09.988Z,87.05
2023-01-01T18:10:14.397Z,87.24
2023-01-01T18:14:22.736Z,86.82
2023-01-01T18:18:27.621Z,86.69
2023-01-01T18:22:31.587Z,86.65
2023-01-01T18:26:36.177Z,86.85
2023-01-01T18:30:39.574Z,87.05
2023-01-01T18:34:42.794Z,87.52
2023-01-01T18:38:48.818Z,87.44
2023-01-01T18:43:02.848Z,87.83
2023-01-01T18:47:14.620Z,87.85
2023-01-01T18:51:23.249Z,88.26
2023-01-01T18:55:28.072Z,88.54
2023-01-01T18:59:33.615Z,88.70
2023-01-01T19:03:41.658Z,89.32
2023-01-01T19:07:51.918Z,89.24
2023-01-01T19:11:56.522Z,89.19
2023-01-01T19:16:07.457Z,89.23
2023-01-01T19:20:16.843Z,89.16
2023-01-01T19:24:22.983Z,89.40
2023-01-01T19:28:37.746Z,89.27
2023-01-01T19:32:45.248Z,89.44
2023-01-01T19:36:48.384Z,89.50
2023-01-01T19:40:51.513Z,89.28
2023-01-01T19:44:54.739Z,89.59
2023-01-01T19:48:59.507Z,89.85
2023-01-01T19:53:02.584Z,89.80
2023-01-01T19:57:05.645Z,90.08
2023-01-01T20:01:08.767Z,89.68
2023-01-01T20:05:13.189Z,89.89
2023-01-01T20:09:16.226Z,89.89
2023-01-01T20:13:19.531Z,90.14
2023-01-01T20:17:22.577Z,90.47
2023-01-01T20:21:44.611Z,90.38
2023-01-01T20:25:47.606Z,90.95
2023-01-01T20:29:50.731Z,91.10
2023-01-01T20:33:53.818Z,91.79
2023-01-01T20:37:58.356Z,91.66
2023-01-01T20:42:01.450Z,92.06
2023-01-01T20:46:04.467Z,92.49
2023-01-01T20:50:08.093Z,92.63
2023-01-01T20:54:12.635Z,92.43
2023-01-01T20:58:15.664Z,92.50
2023-01-01T21:02:19.021Z,92.48
2023-01-01T21:06:24.806Z,92.61
2023-01-01T21:10:29.427Z,92.84
2023-01-01T21:14:32.850Z,93.11
2023-01-01T21:18:36.312Z,93.00
2023-01-01T21:22:41.821Z,93.17
2023-01-01T21:26:46.248Z,93.16
2023-01-01T21:30:51.879Z,93.14
2023-01-01T21:34:56.409Z,93.41
2023-01-01T21:39:04.627Z,93.36
2023-01-01T21:43:24.099Z,93.51
2023-01-01T21:47:27.386Z,93.67
2023-01-01T21:51:33.587Z,93.88
2023-01-01T21:55:51.817Z,93.95
2023-01-01T21:59:57.874Z,94.24
2023-01-01T22:04:04.276Z,94.48
2023-01-01T22:08:24.805Z,94.55
2023-01-01T22:12:29.803Z,94.69
2023-01-01T22:16:34.219Z,94.87
2023-01-01T22:20:39.757Z,94.84
2023-01-01T22:24:45.823Z,95.13
2023-01-01T22:28:51.610Z,95.40
2023-01-01T22:33:01.230Z,95.77
2023-01-01T22:37:04.345Z,95.93
2023-01-01T22:41:09.149Z,95.77
2023-01-01T22:45:16.155Z,95.80
2023-01-01T22:49:24.079Z,95.96
2023-01-01T22:53:27.186Z,95.97
2023-01-01T22:57:30.166Z,95.89
2023-01-01T23:01:33.256Z,96.39
2023-01-01T23:05:37.857Z,96.36
2023-01-01T23:09:41.330Z,96.61
2023-01-01T23:14:06.330Z,96.70
2023-01-01T23:18:10.099Z,96.46
2023-01-01T23:22:16.232Z,96.47
2023-01-01T23:26:19.994Z,96.48
2023-01-01T23:30:23.047Z,96.74
2023-01-01T23:34:26.376Z,96.88
2023-01-01T23:38:31.676Z,96.65
2023-01-01T23:42:34.709Z,96.66
2023-01-01T23:46:39.559Z,96.29
2023-01-01T23:50:42.770Z,96.69
2023-01-01T23:54:47.136Z,96.61
2023-01-01T23:58:50.147Z,96.64
